sensor_id;sensor_type;location;lat;lon;timestamp;P1;durP1;ratioP1;P2;durP2;ratioP2
11839;SDS011;5979;50.800;4.904;2023-07-30T00:01:21;2.70;;;2.50;;
11839;SDS011;5979;50.800;4.904;2023-07-30T00:03:47;4.00;;;2.60;;
11839;SDS011;5979;50.800;4.904;2023-07-30T00:06:12;3.50;;;2.60;;
11839;SDS011;5979;50.800;4.904;2023-07-30T00:08:38;6.13;;;2.67;;
11839;SDS011;5979;50.800;4.904;2023-07-30T00:11:04;4.00;;;2.53;;
11839;SDS011;5979;50.800;4.904;2023-07-30T00:13:29;4.50;;;2.47;;
11839;SDS011;5979;50.800;4.904;2023-07-30T00:15:55;2.58;;;2.20;;
11839;SDS011;5979;50.800;4.904;2023-07-30T00:18:20;4.18;;;2.40;;
11839;SDS011;5979;50.800;4.904;2023-07-30T00:20:46;2.70;;;2.50;;
11839;SDS011;5979;50.800;4.904;2023-07-30T00:23:12;3.95;;;2.50;;
11839;SDS011;5979;50.800;4.904;2023-07-30T00:25:37;4.03;;;2.20;;
11839;SDS011;5979;50.800;4.904;2023-07-30T00:28:03;3.30;;;2.53;;
11839;SDS011;5979;50.800;4.904;2023-07-30T00:30:29;4.70;;;2.63;;
11839;SDS011;5979;50.800;4.904;2023-07-30T00:32:54;3.50;;;2.35;;
11839;SDS011;5979;50.800;4.904;2023-07-30T00:35:20;3.45;;;2.70;;
11839;SDS011;5979;50.800;4.904;2023-07-30T00:37:46;3.47;;;2.42;;
11839;SDS011;5979;50.800;4.904;2023-07-30T00:40:11;3.50;;;2.92;;
11839;SDS011;5979;50.800;4.904;2023-07-30T00:42:37;3.92;;;3.15;;
11839;SDS011;5979;50.800;4.904;2023-07-30T00:45:03;6.28;;;2.95;;
11839;SDS011;5979;50.800;4.904;2023-07-30T00:47:29;5.80;;;3.00;;
11839;SDS011;5979;50.800;4.904;2023-07-30T00:49:56;6.65;;;3.35;;
11839;SDS011;5979;50.800;4.904;2023-07-30T00:52:22;3.55;;;2.67;;
11839;SDS011;5979;50.800;4.904;2023-07-30T00:54:50;6.15;;;2.88;;
11839;SDS011;5979;50.800;4.904;2023-07-30T00:57:17;4.80;;;2.50;;
11839;SDS011;5979;50.800;4.904;2023-07-30T00:59:44;4.78;;;2.90;;
11839;SDS011;5979;50.800;4.904;2023-07-30T01:02:11;4.28;;;3.10;;
11839;SDS011;5979;50.800;4.904;2023-07-30T01:04:37;4.93;;;2.70;;
11839;SDS011;5979;50.800;4.904;2023-07-30T01:07:04;6.28;;;3.20;;
11839;SDS011;5979;50.800;4.904;2023-07-30T01:09:31;6.03;;;2.97;;
11839;SDS011;5979;50.800;4.904;2023-07-30T01:11:58;5.10;;;2.85;;
11839;SDS011;5979;50.800;4.904;2023-07-30T01:14:26;3.50;;;3.08;;
11839;SDS011;5979;50.800;4.904;2023-07-30T01:16:52;7.20;;;3.28;;
11839;SDS011;5979;50.800;4.904;2023-07-30T01:19:18;6.80;;;3.10;;
11839;SDS011;5979;50.800;4.904;2023-07-30T01:21:45;5.50;;;2.67;;
11839;SDS011;5979;50.800;4.904;2023-07-30T01:24:10;5.50;;;3.35;;
11839;SDS011;5979;50.800;4.904;2023-07-30T01:26:37;5.25;;;2.90;;
11839;SDS011;5979;50.800;4.904;2023-07-30T01:29:16;9.20;;;3.60;;
11839;SDS011;5979;50.800;4.904;2023-07-30T01:31:51;7.15;;;2.58;;
11839;SDS011;5979;50.800;4.904;2023-07-30T01:34:26;5.82;;;2.38;;
11839;SDS011;5979;50.800;4.904;2023-07-30T01:36:53;7.22;;;2.92;;
11839;SDS011;5979;50.800;4.904;2023-07-30T01:39:20;6.72;;;3.22;;
11839;SDS011;5979;50.800;4.904;2023-07-30T01:41:47;6.63;;;3.10;;
11839;SDS011;5979;50.800;4.904;2023-07-30T01:44:13;6.38;;;2.60;;
11839;SDS011;5979;50.800;4.904;2023-07-30T01:46:38;5.65;;;2.78;;
11839;SDS011;5979;50.800;4.904;2023-07-30T01:49:04;4.95;;;2.50;;
11839;SDS011;5979;50.800;4.904;2023-07-30T01:51:29;9.65;;;3.03;;
11839;SDS011;5979;50.800;4.904;2023-07-30T01:53:55;4.88;;;2.60;;
11839;SDS011;5979;50.800;4.904;2023-07-30T01:56:21;6.75;;;3.00;;
11839;SDS011;5979;50.800;4.904;2023-07-30T01:58:46;6.97;;;2.90;;
11839;SDS011;5979;50.800;4.904;2023-07-30T02:01:12;7.05;;;2.58;;
11839;SDS011;5979;50.800;4.904;2023-07-30T02:03:38;4.70;;;2.40;;
11839;SDS011;5979;50.800;4.904;2023-07-30T02:06:03;7.13;;;2.67;;
11839;SDS011;5979;50.800;4.904;2023-07-30T02:08:29;5.20;;;2.65;;
11839;SDS011;5979;50.800;4.904;2023-07-30T02:10:58;5.75;;;2.33;;
11839;SDS011;5979;50.800;4.904;2023-07-30T02:13:24;7.07;;;3.10;;
11839;SDS011;5979;50.800;4.904;2023-07-30T02:15:50;5.93;;;3.38;;
11839;SDS011;5979;50.800;4.904;2023-07-30T02:18:16;7.55;;;3.00;;
11839;SDS011;5979;50.800;4.904;2023-07-30T02:20:42;5.97;;;2.72;;
11839;SDS011;5979;50.800;4.904;2023-07-30T02:23:07;6.13;;;3.17;;
11839;SDS011;5979;50.800;4.904;2023-07-30T02:25:33;7.07;;;2.75;;
11839;SDS011;5979;50.800;4.904;2023-07-30T02:28:00;4.47;;;2.25;;
11839;SDS011;5979;50.800;4.904;2023-07-30T02:30:27;5.38;;;2.72;;
11839;SDS011;5979;50.800;4.904;2023-07-30T02:32:53;5.45;;;3.30;;
11839;SDS011;5979;50.800;4.904;2023-07-30T02:35:18;7.22;;;2.88;;
11839;SDS011;5979;50.800;4.904;2023-07-30T02:37:44;6.15;;;2.58;;
11839;SDS011;5979;50.800;4.904;2023-07-30T02:40:10;5.22;;;2.55;;
11839;SDS011;5979;50.800;4.904;2023-07-30T02:42:36;5.65;;;2.63;;
11839;SDS011;5979;50.800;4.904;2023-07-30T02:45:03;6.88;;;2.55;;
11839;SDS011;5979;50.800;4.904;2023-07-30T02:47:30;5.82;;;2.10;;
11839;SDS011;5979;50.800;4.904;2023-07-30T02:49:55;4.20;;;2.20;;
11839;SDS011;5979;50.800;4.904;2023-07-30T02:52:21;5.15;;;2.28;;
11839;SDS011;5979;50.800;4.904;2023-07-30T02:54:47;6.45;;;2.05;;
11839;SDS011;5979;50.800;4.904;2023-07-30T02:57:12;3.08;;;2.20;;
11839;SDS011;5979;50.800;4.904;2023-07-30T02:59:38;4.47;;;2.13;;
11839;SDS011;5979;50.800;4.904;2023-07-30T03:02:05;6.57;;;2.22;;
11839;SDS011;5979;50.800;4.904;2023-07-30T03:04:31;8.35;;;2.35;;
11839;SDS011;5979;50.800;4.904;2023-07-30T03:06:57;5.38;;;2.03;;
11839;SDS011;5979;50.800;4.904;2023-07-30T03:09:23;3.40;;;1.90;;
11839;SDS011;5979;50.800;4.904;2023-07-30T03:11:49;3.83;;;1.83;;
11839;SDS011;5979;50.800;4.904;2023-07-30T03:14:15;3.05;;;1.90;;
11839;SDS011;5979;50.800;4.904;2023-07-30T03:16:41;4.53;;;2.13;;
11839;SDS011;5979;50.800;4.904;2023-07-30T03:19:07;6.25;;;2.42;;
11839;SDS011;5979;50.800;4.904;2023-07-30T03:21:32;3.13;;;1.80;;
11839;SDS011;5979;50.800;4.904;2023-07-30T03:23:58;3.60;;;1.90;;
11839;SDS011;5979;50.800;4.904;2023-07-30T03:26:24;5.28;;;1.92;;
11839;SDS011;5979;50.800;4.904;2023-07-30T03:28:49;4.80;;;1.98;;
11839;SDS011;5979;50.800;4.904;2023-07-30T03:31:15;3.03;;;1.55;;
11839;SDS011;5979;50.800;4.904;2023-07-30T03:33:41;3.42;;;1.42;;
11839;SDS011;5979;50.800;4.904;2023-07-30T03:36:11;3.58;;;1.80;;
11839;SDS011;5979;50.800;4.904;2023-07-30T03:38:38;7.00;;;2.03;;
11839;SDS011;5979;50.800;4.904;2023-07-30T03:41:05;3.15;;;1.63;;
11839;SDS011;5979;50.800;4.904;2023-07-30T03:43:31;4.22;;;1.75;;
11839;SDS011;5979;50.800;4.904;2023-07-30T03:45:57;4.80;;;2.03;;
11839;SDS011;5979;50.800;4.904;2023-07-30T03:48:23;5.65;;;1.88;;
11839;SDS011;5979;50.800;4.904;2023-07-30T03:50:49;4.72;;;1.80;;
11839;SDS011;5979;50.800;4.904;2023-07-30T03:53:14;6.90;;;2.10;;
11839;SDS011;5979;50.800;4.904;2023-07-30T03:55:40;3.08;;;1.83;;
11839;SDS011;5979;50.800;4.904;2023-07-30T03:58:06;4.63;;;1.92;;
11839;SDS011;5979;50.800;4.904;2023-07-30T04:00:31;9.32;;;2.00;;
11839;SDS011;5979;50.800;4.904;2023-07-30T04:02:57;3.17;;;1.60;;
11839;SDS011;5979;50.800;4.904;2023-07-30T04:05:23;5.10;;;1.83;;
11839;SDS011;5979;50.800;4.904;2023-07-30T04:07:49;3.45;;;2.05;;
11839;SDS011;5979;50.800;4.904;2023-07-30T04:10:14;4.75;;;1.85;;
11839;SDS011;5979;50.800;4.904;2023-07-30T04:12:40;3.33;;;1.80;;
11839;SDS011;5979;50.800;4.904;2023-07-30T04:15:06;1.95;;;1.60;;
11839;SDS011;5979;50.800;4.904;2023-07-30T04:17:32;4.25;;;2.05;;
11839;SDS011;5979;50.800;4.904;2023-07-30T04:19:57;5.38;;;2.05;;
11839;SDS011;5979;50.800;4.904;2023-07-30T04:22:23;4.18;;;2.00;;
11839;SDS011;5979;50.800;4.904;2023-07-30T04:24:49;3.35;;;1.88;;
11839;SDS011;5979;50.800;4.904;2023-07-30T04:27:14;3.05;;;1.65;;
11839;SDS011;5979;50.800;4.904;2023-07-30T04:29:40;3.80;;;1.88;;
11839;SDS011;5979;50.800;4.904;2023-07-30T04:32:06;5.47;;;2.05;;
11839;SDS011;5979;50.800;4.904;2023-07-30T04:34:32;3.58;;;2.00;;
11839;SDS011;5979;50.800;4.904;2023-07-30T04:36:57;5.00;;;1.90;;
11839;SDS011;5979;50.800;4.904;2023-07-30T04:39:23;4.78;;;2.35;;
11839;SDS011;5979;50.800;4.904;2023-07-30T04:41:48;3.53;;;1.75;;
11839;SDS011;5979;50.800;4.904;2023-07-30T04:44:14;5.18;;;2.22;;
11839;SDS011;5979;50.800;4.904;2023-07-30T04:46:40;8.15;;;2.03;;
11839;SDS011;5979;50.800;4.904;2023-07-30T04:49:06;3.88;;;2.00;;
11839;SDS011;5979;50.800;4.904;2023-07-30T04:51:31;3.00;;;2.35;;
11839;SDS011;5979;50.800;4.904;2023-07-30T04:53:57;3.92;;;2.05;;
11839;SDS011;5979;50.800;4.904;2023-07-30T04:56:22;8.05;;;2.25;;
11839;SDS011;5979;50.800;4.904;2023-07-30T04:58:50;6.32;;;2.35;;
11839;SDS011;5979;50.800;4.904;2023-07-30T05:01:15;5.18;;;1.92;;
11839;SDS011;5979;50.800;4.904;2023-07-30T05:03:41;4.03;;;2.13;;
11839;SDS011;5979;50.800;4.904;2023-07-30T05:06:07;3.15;;;2.15;;
11839;SDS011;5979;50.800;4.904;2023-07-30T05:08:32;2.65;;;1.90;;
11839;SDS011;5979;50.800;4.904;2023-07-30T05:10:58;3.60;;;1.70;;
11839;SDS011;5979;50.800;4.904;2023-07-30T05:13:24;3.75;;;1.90;;
11839;SDS011;5979;50.800;4.904;2023-07-30T05:15:49;4.05;;;2.00;;
11839;SDS011;5979;50.800;4.904;2023-07-30T05:18:15;6.28;;;2.00;;
11839;SDS011;5979;50.800;4.904;2023-07-30T05:20:41;6.28;;;2.20;;
11839;SDS011;5979;50.800;4.904;2023-07-30T05:23:06;3.08;;;2.08;;
11839;SDS011;5979;50.800;4.904;2023-07-30T05:25:32;3.78;;;1.63;;
11839;SDS011;5979;50.800;4.904;2023-07-30T05:27:58;3.25;;;1.88;;
11839;SDS011;5979;50.800;4.904;2023-07-30T05:30:23;3.58;;;1.80;;
11839;SDS011;5979;50.800;4.904;2023-07-30T05:32:49;3.72;;;1.67;;
11839;SDS011;5979;50.800;4.904;2023-07-30T05:35:15;7.10;;;2.30;;
11839;SDS011;5979;50.800;4.904;2023-07-30T05:37:44;4.65;;;2.45;;
11839;SDS011;5979;50.800;4.904;2023-07-30T05:40:10;4.18;;;2.15;;
11839;SDS011;5979;50.800;4.904;2023-07-30T05:42:35;6.15;;;2.75;;
11839;SDS011;5979;50.800;4.904;2023-07-30T05:45:01;3.17;;;2.00;;
11839;SDS011;5979;50.800;4.904;2023-07-30T05:47:27;4.47;;;2.30;;
11839;SDS011;5979;50.800;4.904;2023-07-30T05:49:53;4.55;;;2.60;;
11839;SDS011;5979;50.800;4.904;2023-07-30T05:52:18;6.75;;;2.47;;
11839;SDS011;5979;50.800;4.904;2023-07-30T05:54:44;5.53;;;2.33;;
11839;SDS011;5979;50.800;4.904;2023-07-30T05:57:10;8.00;;;2.60;;
11839;SDS011;5979;50.800;4.904;2023-07-30T05:59:35;7.05;;;2.65;;
11839;SDS011;5979;50.800;4.904;2023-07-30T06:02:01;5.85;;;2.30;;
11839;SDS011;5979;50.800;4.904;2023-07-30T06:04:28;6.72;;;2.22;;
11839;SDS011;5979;50.800;4.904;2023-07-30T06:06:54;4.32;;;2.65;;
11839;SDS011;5979;50.800;4.904;2023-07-30T06:09:20;4.20;;;2.22;;
11839;SDS011;5979;50.800;4.904;2023-07-30T06:11:45;5.95;;;2.35;;
11839;SDS011;5979;50.800;4.904;2023-07-30T06:14:11;6.15;;;2.50;;
11839;SDS011;5979;50.800;4.904;2023-07-30T06:16:37;4.32;;;2.65;;
11839;SDS011;5979;50.800;4.904;2023-07-30T06:19:02;5.45;;;2.50;;
11839;SDS011;5979;50.800;4.904;2023-07-30T06:21:28;7.65;;;3.03;;
11839;SDS011;5979;50.800;4.904;2023-07-30T06:23:54;7.75;;;3.00;;
11839;SDS011;5979;50.800;4.904;2023-07-30T06:26:19;8.95;;;2.70;;
11839;SDS011;5979;50.800;4.904;2023-07-30T06:28:45;5.55;;;2.72;;
11839;SDS011;5979;50.800;4.904;2023-07-30T06:31:11;9.68;;;3.00;;
11839;SDS011;5979;50.800;4.904;2023-07-30T06:33:36;7.97;;;3.28;;
11839;SDS011;5979;50.800;4.904;2023-07-30T06:36:03;8.07;;;2.85;;
11839;SDS011;5979;50.800;4.904;2023-07-30T06:38:29;8.10;;;3.03;;
11839;SDS011;5979;50.800;4.904;2023-07-30T06:40:54;7.82;;;2.65;;
11839;SDS011;5979;50.800;4.904;2023-07-30T06:43:22;6.22;;;2.63;;
11839;SDS011;5979;50.800;4.904;2023-07-30T06:45:48;6.05;;;2.75;;
11839;SDS011;5979;50.800;4.904;2023-07-30T06:48:14;8.60;;;2.80;;
11839;SDS011;5979;50.800;4.904;2023-07-30T06:50:41;8.95;;;3.20;;
11839;SDS011;5979;50.800;4.904;2023-07-30T06:53:06;6.22;;;2.67;;
11839;SDS011;5979;50.800;4.904;2023-07-30T06:55:32;6.78;;;2.80;;
11839;SDS011;5979;50.800;4.904;2023-07-30T06:57:58;8.32;;;3.17;;
11839;SDS011;5979;50.800;4.904;2023-07-30T07:00:24;9.27;;;3.03;;
11839;SDS011;5979;50.800;4.904;2023-07-30T07:02:50;8.13;;;2.88;;
11839;SDS011;5979;50.800;4.904;2023-07-30T07:05:16;8.13;;;3.03;;
11839;SDS011;5979;50.800;4.904;2023-07-30T07:07:42;9.07;;;3.10;;
11839;SDS011;5979;50.800;4.904;2023-07-30T07:10:07;10.88;;;3.00;;
11839;SDS011;5979;50.800;4.904;2023-07-30T07:12:35;7.30;;;3.35;;
11839;SDS011;5979;50.800;4.904;2023-07-30T07:15:02;7.07;;;3.38;;
11839;SDS011;5979;50.800;4.904;2023-07-30T07:17:28;15.73;;;3.53;;
11839;SDS011;5979;50.800;4.904;2023-07-30T07:19:54;9.75;;;3.10;;
11839;SDS011;5979;50.800;4.904;2023-07-30T07:22:20;10.65;;;3.30;;
11839;SDS011;5979;50.800;4.904;2023-07-30T07:24:45;8.40;;;2.53;;
11839;SDS011;5979;50.800;4.904;2023-07-30T07:27:11;11.07;;;3.08;;
11839;SDS011;5979;50.800;4.904;2023-07-30T07:29:37;8.63;;;3.38;;
11839;SDS011;5979;50.800;4.904;2023-07-30T07:32:03;12.68;;;3.17;;
11839;SDS011;5979;50.800;4.904;2023-07-30T07:34:29;6.70;;;2.72;;
11839;SDS011;5979;50.800;4.904;2023-07-30T07:36:54;8.02;;;3.17;;
11839;SDS011;5979;50.800;4.904;2023-07-30T07:39:20;7.72;;;2.95;;
11839;SDS011;5979;50.800;4.904;2023-07-30T07:41:46;7.00;;;3.22;;
11839;SDS011;5979;50.800;4.904;2023-07-30T07:44:11;9.00;;;2.53;;
11839;SDS011;5979;50.800;4.904;2023-07-30T07:46:37;8.20;;;2.92;;
11839;SDS011;5979;50.800;4.904;2023-07-30T07:49:03;8.73;;;2.65;;
11839;SDS011;5979;50.800;4.904;2023-07-30T07:51:28;12.40;;;2.92;;
11839;SDS011;5979;50.800;4.904;2023-07-30T07:53:54;9.23;;;2.63;;
11839;SDS011;5979;50.800;4.904;2023-07-30T07:56:19;6.85;;;2.85;;
11839;SDS011;5979;50.800;4.904;2023-07-30T07:58:45;8.82;;;2.88;;
11839;SDS011;5979;50.800;4.904;2023-07-30T08:01:11;9.88;;;3.42;;
11839;SDS011;5979;50.800;4.904;2023-07-30T08:03:36;7.10;;;2.88;;
11839;SDS011;5979;50.800;4.904;2023-07-30T08:06:02;7.63;;;2.55;;
11839;SDS011;5979;50.800;4.904;2023-07-30T08:08:28;6.93;;;2.30;;
11839;SDS011;5979;50.800;4.904;2023-07-30T08:10:53;5.82;;;2.53;;
11839;SDS011;5979;50.800;4.904;2023-07-30T08:13:19;8.00;;;2.80;;
11839;SDS011;5979;50.800;4.904;2023-07-30T08:15:45;7.32;;;2.40;;
11839;SDS011;5979;50.800;4.904;2023-07-30T08:18:11;5.57;;;2.47;;
11839;SDS011;5979;50.800;4.904;2023-07-30T08:20:37;4.55;;;2.15;;
11839;SDS011;5979;50.800;4.904;2023-07-30T08:23:03;6.55;;;2.40;;
11839;SDS011;5979;50.800;4.904;2023-07-30T08:25:28;5.38;;;2.78;;
11839;SDS011;5979;50.800;4.904;2023-07-30T08:27:54;5.53;;;2.30;;
11839;SDS011;5979;50.800;4.904;2023-07-30T08:30:20;6.93;;;2.50;;
11839;SDS011;5979;50.800;4.904;2023-07-30T08:32:46;5.93;;;2.60;;
11839;SDS011;5979;50.800;4.904;2023-07-30T08:35:11;4.00;;;2.33;;
11839;SDS011;5979;50.800;4.904;2023-07-30T08:37:37;4.50;;;2.30;;
11839;SDS011;5979;50.800;4.904;2023-07-30T08:40:03;7.90;;;2.42;;
11839;SDS011;5979;50.800;4.904;2023-07-30T08:42:32;7.43;;;2.50;;
11839;SDS011;5979;50.800;4.904;2023-07-30T08:44:59;4.75;;;2.30;;
11839;SDS011;5979;50.800;4.904;2023-07-30T08:47:24;7.95;;;2.25;;
11839;SDS011;5979;50.800;4.904;2023-07-30T08:49:50;6.32;;;2.30;;
11839;SDS011;5979;50.800;4.904;2023-07-30T08:52:16;7.45;;;2.53;;
11839;SDS011;5979;50.800;4.904;2023-07-30T08:54:42;2.90;;;2.40;;
11839;SDS011;5979;50.800;4.904;2023-07-30T08:57:09;4.82;;;2.08;;
11839;SDS011;5979;50.800;4.904;2023-07-30T08:59:47;6.40;;;2.00;;
11839;SDS011;5979;50.800;4.904;2023-07-30T09:02:24;4.75;;;2.20;;
11839;SDS011;5979;50.800;4.904;2023-07-30T09:04:56;6.45;;;2.05;;
11839;SDS011;5979;50.800;4.904;2023-07-30T09:07:25;7.07;;;2.13;;
11839;SDS011;5979;50.800;4.904;2023-07-30T09:09:50;5.43;;;2.25;;
11839;SDS011;5979;50.800;4.904;2023-07-30T09:12:16;4.18;;;2.00;;
11839;SDS011;5979;50.800;4.904;2023-07-30T09:14:42;4.57;;;2.20;;
11839;SDS011;5979;50.800;4.904;2023-07-30T09:17:18;4.45;;;2.15;;
11839;SDS011;5979;50.800;4.904;2023-07-30T09:19:44;4.00;;;2.10;;
11839;SDS011;5979;50.800;4.904;2023-07-30T09:22:12;5.97;;;2.25;;
11839;SDS011;5979;50.800;4.904;2023-07-30T09:24:41;7.97;;;2.13;;
11839;SDS011;5979;50.800;4.904;2023-07-30T09:27:08;7.25;;;2.38;;
11839;SDS011;5979;50.800;4.904;2023-07-30T09:29:34;2.00;;;1.50;;
11839;SDS011;5979;50.800;4.904;2023-07-30T09:31:59;5.20;;;2.05;;
11839;SDS011;5979;50.800;4.904;2023-07-30T09:34:25;3.67;;;2.00;;
11839;SDS011;5979;50.800;4.904;2023-07-30T09:36:52;6.70;;;2.25;;
11839;SDS011;5979;50.800;4.904;2023-07-30T09:39:22;7.30;;;2.35;;
11839;SDS011;5979;50.800;4.904;2023-07-30T09:41:50;4.55;;;1.85;;
11839;SDS011;5979;50.800;4.904;2023-07-30T09:44:17;4.50;;;1.98;;
11839;SDS011;5979;50.800;4.904;2023-07-30T09:46:44;5.65;;;2.28;;
11839;SDS011;5979;50.800;4.904;2023-07-30T09:49:11;5.07;;;2.17;;
11839;SDS011;5979;50.800;4.904;2023-07-30T09:51:37;7.22;;;2.50;;
11839;SDS011;5979;50.800;4.904;2023-07-30T09:54:05;5.30;;;2.45;;
11839;SDS011;5979;50.800;4.904;2023-07-30T09:56:35;4.95;;;1.90;;
11839;SDS011;5979;50.800;4.904;2023-07-30T09:59:03;2.55;;;2.10;;
11839;SDS011;5979;50.800;4.904;2023-07-30T10:01:29;3.97;;;2.13;;
11839;SDS011;5979;50.800;4.904;2023-07-30T10:03:56;4.10;;;1.80;;
11839;SDS011;5979;50.800;4.904;2023-07-30T10:06:27;2.78;;;1.77;;
11839;SDS011;5979;50.800;4.904;2023-07-30T10:08:55;3.05;;;1.83;;
11839;SDS011;5979;50.800;4.904;2023-07-30T10:11:24;4.10;;;2.22;;
11839;SDS011;5979;50.800;4.904;2023-07-30T10:13:51;4.10;;;1.90;;
11839;SDS011;5979;50.800;4.904;2023-07-30T10:16:17;4.88;;;1.95;;
11839;SDS011;5979;50.800;4.904;2023-07-30T10:18:43;5.10;;;1.83;;
11839;SDS011;5979;50.800;4.904;2023-07-30T10:21:10;7.55;;;2.22;;
11839;SDS011;5979;50.800;4.904;2023-07-30T10:23:46;3.42;;;2.08;;
11839;SDS011;5979;50.800;4.904;2023-07-30T10:26:26;5.95;;;2.55;;
11839;SDS011;5979;50.800;4.904;2023-07-30T10:29:12;4.13;;;2.20;;
11839;SDS011;5979;50.800;4.904;2023-07-30T10:31:52;6.88;;;2.15;;
11839;SDS011;5979;50.800;4.904;2023-07-30T10:34:20;7.15;;;2.33;;
11839;SDS011;5979;50.800;4.904;2023-07-30T10:36:47;4.30;;;1.90;;
11839;SDS011;5979;50.800;4.904;2023-07-30T10:41:43;2.50;;;2.13;;
11839;SDS011;5979;50.800;4.904;2023-07-30T10:46:44;7.78;;;2.83;;
11839;SDS011;5979;50.800;4.904;2023-07-30T10:49:10;4.65;;;2.60;;
11839;SDS011;5979;50.800;4.904;2023-07-30T10:51:37;3.90;;;1.80;;
11839;SDS011;5979;50.800;4.904;2023-07-30T10:54:05;4.18;;;1.98;;
11839;SDS011;5979;50.800;4.904;2023-07-30T10:56:35;3.53;;;1.80;;
11839;SDS011;5979;50.800;4.904;2023-07-30T10:59:03;5.55;;;1.90;;
11839;SDS011;5979;50.800;4.904;2023-07-30T11:01:36;5.07;;;2.05;;
11839;SDS011;5979;50.800;4.904;2023-07-30T11:04:11;2.58;;;1.63;;
11839;SDS011;5979;50.800;4.904;2023-07-30T11:06:44;5.20;;;1.90;;
11839;SDS011;5979;50.800;4.904;2023-07-30T11:09:18;6.95;;;2.00;;
11839;SDS011;5979;50.800;4.904;2023-07-30T11:11:48;4.95;;;2.22;;
11839;SDS011;5979;50.800;4.904;2023-07-30T11:14:19;3.53;;;1.85;;
11839;SDS011;5979;50.800;4.904;2023-07-30T11:16:49;3.63;;;1.95;;
11839;SDS011;5979;50.800;4.904;2023-07-30T11:19:16;4.00;;;1.80;;
11839;SDS011;5979;50.800;4.904;2023-07-30T11:21:46;4.30;;;1.77;;
11839;SDS011;5979;50.800;4.904;2023-07-30T11:24:12;3.92;;;2.08;;
11839;SDS011;5979;50.800;4.904;2023-07-30T11:26:38;7.05;;;2.17;;
11839;SDS011;5979;50.800;4.904;2023-07-30T11:29:14;4.40;;;1.90;;
11839;SDS011;5979;50.800;4.904;2023-07-30T11:31:40;5.57;;;2.00;;
11839;SDS011;5979;50.800;4.904;2023-07-30T11:34:07;8.40;;;2.08;;
11839;SDS011;5979;50.800;4.904;2023-07-30T11:36:33;3.97;;;1.80;;
11839;SDS011;5979;50.800;4.904;2023-07-30T11:38:58;4.60;;;1.90;;
11839;SDS011;5979;50.800;4.904;2023-07-30T11:41:28;3.55;;;2.08;;
11839;SDS011;5979;50.800;4.904;2023-07-30T11:43:54;5.72;;;1.85;;
11839;SDS011;5979;50.800;4.904;2023-07-30T11:46:20;5.50;;;1.70;;
11839;SDS011;5979;50.800;4.904;2023-07-30T11:48:50;4.80;;;2.20;;
11839;SDS011;5979;50.800;4.904;2023-07-30T11:51:21;5.45;;;2.72;;
11839;SDS011;5979;50.800;4.904;2023-07-30T11:53:57;5.32;;;2.38;;
11839;SDS011;5979;50.800;4.904;2023-07-30T11:56:34;4.50;;;2.10;;
11839;SDS011;5979;50.800;4.904;2023-07-30T12:01:34;4.32;;;2.03;;
11839;SDS011;5979;50.800;4.904;2023-07-30T12:04:03;5.60;;;1.77;;
11839;SDS011;5979;50.800;4.904;2023-07-30T12:06:40;4.07;;;1.88;;
11839;SDS011;5979;50.800;4.904;2023-07-30T12:09:14;3.72;;;1.60;;
11839;SDS011;5979;50.800;4.904;2023-07-30T12:12:00;3.50;;;1.88;;
11839;SDS011;5979;50.800;4.904;2023-07-30T12:14:42;2.10;;;1.40;;
11839;SDS011;5979;50.800;4.904;2023-07-30T12:17:10;1.90;;;1.40;;
11839;SDS011;5979;50.800;4.904;2023-07-30T12:19:35;1.70;;;1.40;;
11839;SDS011;5979;50.800;4.904;2023-07-30T12:22:01;2.55;;;1.50;;
11839;SDS011;5979;50.800;4.904;2023-07-30T12:24:27;2.55;;;1.77;;
11839;SDS011;5979;50.800;4.904;2023-07-30T12:26:53;4.53;;;1.73;;
11839;SDS011;5979;50.800;4.904;2023-07-30T12:29:19;2.50;;;1.33;;
11839;SDS011;5979;50.800;4.904;2023-07-30T12:31:44;3.10;;;1.80;;
11839;SDS011;5979;50.800;4.904;2023-07-30T12:34:11;2.83;;;1.58;;
11839;SDS011;5979;50.800;4.904;2023-07-30T12:36:37;2.05;;;1.60;;
11839;SDS011;5979;50.800;4.904;2023-07-30T12:39:03;4.88;;;2.00;;
11839;SDS011;5979;50.800;4.904;2023-07-30T12:41:29;4.32;;;1.98;;
11839;SDS011;5979;50.800;4.904;2023-07-30T12:43:55;3.95;;;2.10;;
11839;SDS011;5979;50.800;4.904;2023-07-30T12:46:24;2.55;;;1.98;;
11839;SDS011;5979;50.800;4.904;2023-07-30T12:48:54;4.18;;;1.88;;
11839;SDS011;5979;50.800;4.904;2023-07-30T12:51:28;3.95;;;1.80;;
11839;SDS011;5979;50.800;4.904;2023-07-30T12:53:53;5.60;;;2.03;;
11839;SDS011;5979;50.800;4.904;2023-07-30T12:56:19;4.78;;;1.90;;
11839;SDS011;5979;50.800;4.904;2023-07-30T12:58:44;3.78;;;1.85;;
11839;SDS011;5979;50.800;4.904;2023-07-30T13:01:10;3.33;;;1.80;;
11839;SDS011;5979;50.800;4.904;2023-07-30T13:03:36;4.85;;;1.80;;
11839;SDS011;5979;50.800;4.904;2023-07-30T13:06:02;5.15;;;2.35;;
11839;SDS011;5979;50.800;4.904;2023-07-30T13:08:27;3.92;;;1.70;;
11839;SDS011;5979;50.800;4.904;2023-07-30T13:10:53;4.45;;;2.05;;
11839;SDS011;5979;50.800;4.904;2023-07-30T13:13:18;6.28;;;2.17;;
11839;SDS011;5979;50.800;4.904;2023-07-30T13:15:44;3.92;;;2.13;;
11839;SDS011;5979;50.800;4.904;2023-07-30T13:18:10;3.03;;;1.73;;
11839;SDS011;5979;50.800;4.904;2023-07-30T13:20:35;3.70;;;1.83;;
11839;SDS011;5979;50.800;4.904;2023-07-30T13:23:01;4.47;;;2.17;;
11839;SDS011;5979;50.800;4.904;2023-07-30T13:25:27;7.68;;;1.77;;
11839;SDS011;5979;50.800;4.904;2023-07-30T13:27:53;3.72;;;1.80;;
11839;SDS011;5979;50.800;4.904;2023-07-30T13:30:19;1.63;;;1.50;;
11839;SDS011;5979;50.800;4.904;2023-07-30T13:32:45;2.70;;;1.63;;
11839;SDS011;5979;50.800;4.904;2023-07-30T13:35:10;2.90;;;1.38;;
11839;SDS011;5979;50.800;4.904;2023-07-30T13:37:36;5.93;;;1.85;;
11839;SDS011;5979;50.800;4.904;2023-07-30T13:40:01;5.07;;;1.95;;
11839;SDS011;5979;50.800;4.904;2023-07-30T13:42:28;2.95;;;1.50;;
11839;SDS011;5979;50.800;4.904;2023-07-30T13:44:54;5.32;;;2.00;;
11839;SDS011;5979;50.800;4.904;2023-07-30T13:47:19;3.15;;;1.70;;
11839;SDS011;5979;50.800;4.904;2023-07-30T13:49:45;4.10;;;1.55;;
11839;SDS011;5979;50.800;4.904;2023-07-30T13:52:12;2.55;;;1.55;;
11839;SDS011;5979;50.800;4.904;2023-07-30T13:54:38;2.85;;;1.80;;
11839;SDS011;5979;50.800;4.904;2023-07-30T13:57:04;3.55;;;1.50;;
11839;SDS011;5979;50.800;4.904;2023-07-30T13:59:30;3.10;;;1.67;;
11839;SDS011;5979;50.800;4.904;2023-07-30T14:01:56;1.92;;;1.45;;
11839;SDS011;5979;50.800;4.904;2023-07-30T14:04:21;3.83;;;1.75;;
11839;SDS011;5979;50.800;4.904;2023-07-30T14:06:47;3.15;;;1.98;;
11839;SDS011;5979;50.800;4.904;2023-07-30T14:09:13;5.32;;;1.73;;
11839;SDS011;5979;50.800;4.904;2023-07-30T14:11:38;3.42;;;1.83;;
11839;SDS011;5979;50.800;4.904;2023-07-30T14:14:07;3.78;;;1.90;;
11839;SDS011;5979;50.800;4.904;2023-07-30T14:16:33;6.35;;;2.20;;
11839;SDS011;5979;50.800;4.904;2023-07-30T14:18:59;5.13;;;1.90;;
11839;SDS011;5979;50.800;4.904;2023-07-30T14:21:25;3.25;;;1.60;;
11839;SDS011;5979;50.800;4.904;2023-07-30T14:23:50;7.32;;;2.17;;
11839;SDS011;5979;50.800;4.904;2023-07-30T14:26:16;3.22;;;2.03;;
11839;SDS011;5979;50.800;4.904;2023-07-30T14:28:42;3.92;;;1.80;;
11839;SDS011;5979;50.800;4.904;2023-07-30T14:31:07;3.90;;;1.92;;
11839;SDS011;5979;50.800;4.904;2023-07-30T14:33:33;3.00;;;2.00;;
11839;SDS011;5979;50.800;4.904;2023-07-30T14:35:59;4.75;;;1.73;;
11839;SDS011;5979;50.800;4.904;2023-07-30T14:38:25;4.47;;;1.95;;
11839;SDS011;5979;50.800;4.904;2023-07-30T14:40:50;3.55;;;1.90;;
11839;SDS011;5979;50.800;4.904;2023-07-30T14:43:16;3.47;;;2.00;;
11839;SDS011;5979;50.800;4.904;2023-07-30T14:45:42;7.30;;;2.33;;
11839;SDS011;5979;50.800;4.904;2023-07-30T14:48:07;5.40;;;2.20;;
11839;SDS011;5979;50.800;4.904;2023-07-30T14:50:33;2.67;;;2.05;;
11839;SDS011;5979;50.800;4.904;2023-07-30T14:52:58;3.03;;;1.80;;
11839;SDS011;5979;50.800;4.904;2023-07-30T14:55:24;4.28;;;1.90;;
11839;SDS011;5979;50.800;4.904;2023-07-30T14:57:50;2.58;;;2.00;;
11839;SDS011;5979;50.800;4.904;2023-07-30T15:00:16;3.13;;;1.73;;
11839;SDS011;5979;50.800;4.904;2023-07-30T15:02:42;3.00;;;1.75;;
11839;SDS011;5979;50.800;4.904;2023-07-30T15:05:08;2.10;;;1.67;;